Angelica, Pennsylvania
Current Conditions -  °F | °C
As of 12:54 PM on Friday 31 Oct 2014 (Local Time) from KRDG Reporting Station
Clear Clear  
Wind Chill: 53°   Ceiling: Unl
Heat Index: 53°   Visibility: 10mi
Dew Point: 33°   Wind: 7mph
Humidity: 47%   Direction: NA
Pressure: 29.94"   Gusts: NA
Location:  40.2411°N, 75.9752°W
Report Text: KRDG 311654Z VRB06KT 10SM CLR 12/01 A2994 RMK AO2 SLP144 T01170006
Loading
Personal Weather Stations






























Interactive Weather Map
Tropical Storm Tracking
New forecast layout! Learn more

10-Day Weather Forecast

Advertisements
Track Severe Weather on mobile